createdAt,value
2022-11-21T00:04:28.256Z,97078.56
2022-11-21T00:09:30.305Z,97059.44
2022-11-21T00:14:34.283Z,97044.97
2022-11-21T00:19:36.137Z,97036.81
2022-11-21T00:24:38.024Z,97026.00
2022-11-21T00:29:39.851Z,97019.22
2022-11-21T00:34:41.690Z,97002.91
2022-11-21T00:39:43.545Z,96990.03
2022-11-21T00:44:45.364Z,96984.22
2022-11-21T00:49:47.263Z,96979.81
2022-11-21T00:54:49.114Z,96964.56
2022-11-21T00:59:50.921Z,96953.13
2022-11-21T01:04:52.746Z,96942.78
2022-11-21T01:09:54.550Z,96925.50
2022-11-21T01:14:56.353Z,96917.97
2022-11-21T01:19:58.171Z,96904.94
2022-11-21T01:25:00.004Z,96903.41
2022-11-21T01:30:01.834Z,96887.38
2022-11-21T01:35:03.747Z,96882.06
2022-11-21T01:40:05.861Z,96888.75
2022-11-21T01:45:45.200Z,96873.38
2022-11-21T01:50:47.334Z,96879.88
2022-11-21T01:55:49.923Z,96875.59
2022-11-21T02:00:51.895Z,96872.72
2022-11-21T02:05:55.519Z,96860.09
2022-11-21T02:11:09.567Z,96850.63
2022-11-21T02:16:11.722Z,96852.13
2022-11-21T02:21:39.473Z,96841.97
2022-11-21T02:26:42.367Z,96838.69
2022-11-21T02:31:44.263Z,96842.56
2022-11-21T02:36:47.569Z,96824.44
2022-11-21T02:42:23.437Z,96814.22
2022-11-21T02:47:26.313Z,96806.38
2022-11-21T02:52:28.083Z,96810.81
2022-11-21T02:57:29.868Z,96809.44
2022-11-21T03:02:32.100Z,96808.09
2022-11-21T03:07:34.565Z,96805.84
2022-11-21T03:12:37.675Z,96799.13
2022-11-21T03:17:40.045Z,96803.00
2022-11-21T03:22:41.865Z,96795.94
2022-11-21T03:27:43.611Z,96785.63
2022-11-21T03:32:45.368Z,96773.78
2022-11-21T03:37:48.859Z,96767.31
2022-11-21T03:42:50.613Z,96774.91
2022-11-21T03:47:52.410Z,96776.47
2022-11-21T03:52:54.204Z,96768.88
2022-11-21T03:57:55.956Z,96770.84
2022-11-21T04:02:57.764Z,96771.31
2022-11-21T04:07:59.551Z,96767.91
2022-11-21T04:13:01.377Z,96755.28
2022-11-21T04:18:03.159Z,96753.47
2022-11-21T04:23:05.422Z,96751.66
2022-11-21T04:28:07.565Z,96747.94
2022-11-21T04:33:10.857Z,96745.75
2022-11-21T04:38:14.200Z,96732.03
2022-11-21T04:43:16.036Z,96728.63
2022-11-21T04:48:17.846Z,96728.72
2022-11-21T04:53:19.660Z,96732.94
2022-11-21T04:58:21.518Z,96732.19
2022-11-21T05:03:23.381Z,96731.47
2022-11-21T05:08:25.217Z,96721.63
2022-11-21T05:13:27.001Z,96727.13
2022-11-21T05:18:28.802Z,96731.13
2022-11-21T05:23:30.902Z,96723.94
2022-11-21T05:28:32.702Z,96724.34
2022-11-21T05:33:34.530Z,96729.03
2022-11-21T05:38:36.300Z,96732.91
2022-11-21T05:43:47.153Z,96730.59
2022-11-21T05:48:50.097Z,96739.75
2022-11-21T05:53:51.951Z,96743.22
2022-11-21T05:58:57.816Z,96737.50
2022-11-21T06:04:01.720Z,96742.19
2022-11-21T06:09:05.118Z,96751.25
2022-11-21T06:14:07.065Z,96765.78
2022-11-21T06:19:08.863Z,96778.53
2022-11-21T06:24:12.284Z,96789.25
2022-11-21T06:29:14.172Z,96786.97
2022-11-21T06:34:16.010Z,96808.06
2022-11-21T06:39:17.812Z,96823.97
2022-11-21T06:44:19.846Z,96828.59
2022-11-21T06:49:22.393Z,96841.66
2022-11-21T06:54:24.287Z,96845.63
2022-11-21T06:59:26.101Z,96859.41
2022-11-21T07:04:28.171Z,96870.94
2022-11-21T07:09:34.163Z,96877.94
2022-11-21T07:14:36.092Z,96880.66
2022-11-21T07:19:40.853Z,96893.00
2022-11-21T07:24:42.999Z,96911.09
2022-11-21T07:29:44.863Z,96917.81
2022-11-21T07:34:46.732Z,96927.41
2022-11-21T07:39:48.641Z,96941.25
2022-11-21T07:44:50.451Z,96951.97
2022-11-21T07:49:52.317Z,96961.13
2022-11-21T07:54:54.353Z,96960.38
2022-11-21T07:59:56.436Z,96966.41
2022-11-21T08:04:58.485Z,96970.06
2022-11-21T08:10:00.336Z,96985.03
2022-11-21T08:15:02.367Z,96991.69
2022-11-21T08:20:05.319Z,96989.34
2022-11-21T08:25:08.573Z,97009.06
2022-11-21T08:30:11.964Z,97011.06
2022-11-21T08:35:13.773Z,97032.72
2022-11-21T08:40:15.803Z,97041.38
2022-11-21T08:45:17.594Z,97052.34
2022-11-21T08:50:19.861Z,97060.56
2022-11-21T08:55:23.177Z,97079.59
2022-11-21T09:00:25.162Z,97088.28
2022-11-21T09:05:26.961Z,97093.53
2022-11-21T09:10:29.606Z,97089.03
2022-11-21T09:15:49.970Z,97100.09
2022-11-21T09:20:51.812Z,97116.56
2022-11-21T09:25:53.653Z,97121.09
2022-11-21T09:30:55.465Z,97121.25
2022-11-21T09:36:01.143Z,97126.94
2022-11-21T09:41:35.916Z,97132.25
2022-11-21T09:46:46.994Z,97129.13
2022-11-21T09:51:49.955Z,97126.75
2022-11-21T09:56:54.078Z,97134.25
2022-11-21T10:01:57.062Z,97141.66
2022-11-21T10:07:11.432Z,97151.16
2022-11-21T10:12:34.552Z,97154.28
2022-11-21T10:17:45.029Z,97159.63
2022-11-21T10:22:57.762Z,97154.84
2022-11-21T10:28:04.642Z,97161.44
2022-11-21T10:33:15.343Z,97164.53
2022-11-21T10:38:21.916Z,97175.66
2022-11-21T10:43:42.364Z,97178.53
2022-11-21T10:48:58.966Z,97171.44
2022-11-21T10:54:32.528Z,97186.09
2022-11-21T10:59:34.398Z,97176.88
2022-11-21T11:04:44.598Z,97183.94
2022-11-21T11:09:49.580Z,97175.72
2022-11-21T11:14:55.920Z,97161.88
2022-11-21T11:20:38.627Z,97174.25
2022-11-21T11:25:40.459Z,97172.47
2022-11-21T11:30:43.596Z,97177.44
2022-11-21T11:35:47.088Z,97181.03
2022-11-21T11:40:49.219Z,97175.34
2022-11-21T11:46:12.675Z,97175.53
2022-11-21T11:51:39.881Z,97167.56
2022-11-21T11:56:43.588Z,97155.31
2022-11-21T12:02:07.482Z,97159.88
2022-11-21T12:08:33.192Z,97163.63
2022-11-21T12:13:09.770Z,97159.34
2022-11-21T12:18:26.073Z,97171.56
2022-11-21T12:23:39.923Z,97166.22
2022-11-21T12:29:03.612Z,97155.44
2022-11-21T12:34:26.479Z,97166.88
2022-11-21T12:39:53.457Z,97167.81
2022-11-21T12:45:29.088Z,97167.59
2022-11-21T12:51:15.499Z,97163.81
2022-11-21T12:56:32.953Z,97159.84
2022-11-21T13:01:50.533Z,97152.72
2022-11-21T13:06:55.706Z,97164.34
2022-11-21T13:12:06.072Z,97161.47
2022-11-21T13:17:45.060Z,97156.38
2022-11-21T13:22:47.621Z,97158.81
2022-11-21T13:27:54.003Z,97155.69
2022-11-21T13:32:56.949Z,97153.94
2022-11-21T13:38:02.439Z,97143.88
2022-11-21T13:49:08.849Z,97132.72
2022-11-21T13:54:34.268Z,97122.66
2022-11-21T13:59:57.184Z,97124.44
2022-11-21T14:05:14.285Z,97115.63
2022-11-21T14:10:28.044Z,97125.34
2022-11-21T14:15:58.794Z,97120.97
2022-11-21T14:21:03.497Z,97122.16
2022-11-21T14:26:12.887Z,97115.56
2022-11-21T14:31:14.947Z,97125.91
2022-11-21T14:36:22.450Z,97122.97
2022-11-21T14:41:26.425Z,97121.53
2022-11-21T14:46:39.541Z,97115.06
2022-11-21T14:51:43.991Z,97108.94
2022-11-21T14:56:58.871Z,97122.19
2022-11-21T15:02:04.359Z,97119.56
2022-11-21T15:07:31.636Z,97113.31
2022-11-21T15:12:47.938Z,97110.28
2022-11-21T15:18:25.783Z,97102.13
2022-11-21T15:23:32.961Z,97097.00
2022-11-21T15:28:34.831Z,97099.06
2022-11-21T15:39:22.468Z,97093.84
2022-11-21T15:44:24.365Z,97086.34
2022-11-21T15:49:32.915Z,97077.53
2022-11-21T15:54:48.491Z,97079.91
2022-11-21T15:57:13.882Z,97090.63
2022-11-21T15:59:50.495Z,97072.97
2022-11-21T16:04:53.543Z,97066.72
2022-11-21T16:09:56.096Z,97064.50
2022-11-21T16:14:57.934Z,97052.03
2022-11-21T16:19:59.731Z,97046.50
2022-11-21T16:25:01.667Z,97045.19
2022-11-21T16:30:04.270Z,97033.66
2022-11-21T16:35:06.584Z,97031.88
2022-11-21T16:40:10.099Z,97026.53
2022-11-21T16:45:12.063Z,97014.53
2022-11-21T16:50:13.972Z,97022.34
2022-11-21T16:55:15.798Z,97009.44
2022-11-21T17:00:18.287Z,97000.75
2022-11-21T17:05:21.029Z,97001.84
2022-11-21T17:10:23.541Z,97000.94
2022-11-21T17:15:25.409Z,96984.44
2022-11-21T17:20:27.544Z,96983.66
2022-11-21T17:25:29.910Z,96985.56
2022-11-21T17:30:32.974Z,96990.25
2022-11-21T17:35:35.733Z,96987.78
2022-11-21T17:40:37.609Z,96988.53
2022-11-21T17:45:39.419Z,96988.44
2022-11-21T17:50:41.289Z,96995.38
2022-11-21T17:55:43.107Z,96987.44
2022-11-21T18:00:45.086Z,96984.44
2022-11-21T18:05:51.486Z,96985.56
2022-11-21T18:10:54.082Z,96981.75
2022-11-21T18:15:56.459Z,96966.38
2022-11-21T18:21:10.229Z,96970.81
2022-11-21T18:26:17.699Z,96969.56
2022-11-21T18:31:21.710Z,96945.78
2022-11-21T18:36:25.779Z,96940.00
2022-11-21T18:41:30.394Z,96935.53
2022-11-21T18:46:34.720Z,96918.78
2022-11-21T18:51:36.856Z,96912.06
2022-11-21T18:56:40.494Z,96888.69
2022-11-21T19:01:42.484Z,96882.75
2022-11-21T19:06:44.420Z,96881.06
2022-11-21T19:11:46.298Z,96868.66
2022-11-21T19:16:48.115Z,96860.31
2022-11-21T19:21:49.991Z,96842.56
2022-11-21T19:26:51.856Z,96843.78
2022-11-21T19:31:53.727Z,96829.63
2022-11-21T19:36:55.615Z,96830.09
2022-11-21T19:41:57.536Z,96817.97
2022-11-21T19:46:59.362Z,96824.06
2022-11-21T19:52:01.209Z,96829.88
2022-11-21T19:57:03.088Z,96825.22
2022-11-21T20:02:05.034Z,96820.19
2022-11-21T20:07:07.980Z,96822.88
2022-11-21T20:12:10.062Z,96829.22
2022-11-21T20:17:11.981Z,96824.78
2022-11-21T20:22:14.286Z,96834.16
2022-11-21T20:27:16.121Z,96843.53
2022-11-21T20:32:17.956Z,96835.31
2022-11-21T20:37:19.743Z,96838.19
2022-11-21T20:42:21.748Z,96825.94
2022-11-21T20:47:23.636Z,96835.06
2022-11-21T20:57:47.638Z,96835.94
2022-11-21T21:02:49.721Z,96814.34
2022-11-21T21:07:51.887Z,96812.56
2022-11-21T21:12:53.800Z,96826.41
2022-11-21T21:17:55.670Z,96823.50
2022-11-21T21:22:57.563Z,96833.53
2022-11-21T21:27:59.372Z,96817.59
2022-11-21T21:33:01.688Z,96816.91
2022-11-21T21:38:08.667Z,96820.06
2022-11-21T21:43:12.020Z,96805.56
2022-11-21T21:48:13.833Z,96831.09
2022-11-21T21:53:15.670Z,96842.22
2022-11-21T21:58:17.476Z,96835.88
2022-11-21T22:03:19.329Z,96833.34
2022-11-21T22:08:21.135Z,96827.84
2022-11-21T22:13:23.106Z,96810.91
2022-11-21T22:18:25.052Z,96809.22
2022-11-21T22:23:27.319Z,96804.69
2022-11-21T22:28:29.918Z,96802.44
2022-11-21T22:33:32.294Z,96791.28
2022-11-21T22:38:35.131Z,96781.59
2022-11-21T22:43:36.978Z,96780.91
2022-11-21T22:48:39.524Z,96770.66
2022-11-21T22:53:41.610Z,96757.03
2022-11-21T22:58:43.884Z,96753.59
2022-11-21T23:03:46.854Z,96741.00
2022-11-21T23:08:49.351Z,96729.28
2022-11-21T23:13:51.585Z,96727.84
2022-11-21T23:18:54.899Z,96721.84
2022-11-21T23:23:56.731Z,96725.81
2022-11-21T23:29:01.297Z,96724.47
2022-11-21T23:34:07.022Z,96715.44
2022-11-21T23:39:09.462Z,96710.16
2022-11-21T23:44:11.285Z,96711.84
2022-11-21T23:49:13.071Z,96714.16
2022-11-21T23:54:14.866Z,96701.25
2022-11-21T23:59:16.646Z,96694.41
